Time;durP1;ratioP1;P1;durP2;ratioP2;P2;SDS_P1;SDS_P2;PMS_P1;PMS_P2;Temp;Humidity;BMP_temperature;BMP_pressure;BME280_temperature;BME280_humidity;BME280_pressure;Samples;Min_cycle;Max_cycle;Signal;HPM_P1;HPM_P2
2021/01/09 00:01:17;;;;;;;13.38;7.63;;;3.40;99.90;;;;;;5006102;28;20422;-78
2021/01/09 00:03:43;;;;;;;12.55;6.97;;;3.40;99.90;;;;;;5006263;28;20037;-78
2021/01/09 00:06:08;;;;;;;11.55;6.55;;;3.40;99.90;;;;;;5007575;28;20037;-78
2021/01/09 00:08:34;;;;;;;11.93;6.95;;;3.40;99.90;;;;;;5005901;28;20087;-78
2021/01/09 00:10:59;;;;;;;12.30;6.55;;;3.50;99.90;;;;;;5006384;28;20032;-76
2021/01/09 00:13:24;;;;;;;11.68;6.60;;;3.50;99.90;;;;;;5008886;28;20095;-76
2021/01/09 00:15:50;;;;;;;11.48;6.65;;;3.30;99.90;;;;;;5007113;28;20029;-77
2021/01/09 00:18:15;;;;;;;12.18;6.63;;;3.40;99.90;;;;;;5013009;28;20022;-76
2021/01/09 00:20:41;;;;;;;13.45;6.85;;;3.40;99.90;;;;;;4998399;28;20034;-76
2021/01/09 00:23:07;;;;;;;11.52;6.63;;;3.40;99.90;;;;;;5018869;28;20024;-76
2021/01/09 00:25:32;;;;;;;12.10;6.93;;;3.40;99.90;;;;;;5013291;28;20101;-76
2021/01/09 00:27:58;;;;;;;10.73;6.05;;;3.40;99.90;;;;;;5008399;28;20038;-78
2021/01/09 00:30:23;;;;;;;11.40;6.55;;;3.40;99.90;;;;;;5008237;28;20105;-77
2021/01/09 00:32:49;;;;;;;10.63;6.57;;;3.50;99.90;;;;;;5000094;28;20022;-77
2021/01/09 00:35:15;;;;;;;11.00;6.57;;;3.50;99.90;;;;;;4996284;28;20026;-77
2021/01/09 00:37:40;;;;;;;10.60;6.18;;;3.60;99.90;;;;;;5000274;28;20027;-77
2021/01/09 00:40:06;;;;;;;12.10;6.13;;;3.50;99.90;;;;;;4999191;28;20375;-77
2021/01/09 00:42:38;;;;;;;11.30;6.72;;;3.50;99.90;;;;;;5011639;28;20049;-77
2021/01/09 00:45:05;;;;;;;11.70;6.25;;;3.50;99.90;;;;;;5009506;28;20049;-77
2021/01/09 00:47:31;;;;;;;12.07;6.68;;;3.50;99.90;;;;;;5005241;28;20034;-76
2021/01/09 00:49:56;;;;;;;13.15;6.50;;;3.40;99.90;;;;;;4998888;28;20495;-76
2021/01/09 00:52:22;;;;;;;12.10;7.07;;;3.40;99.90;;;;;;5005804;28;20498;-77
2021/01/09 00:54:47;;;;;;;10.73;6.50;;;3.40;99.90;;;;;;5022590;28;20068;-77
2021/01/09 00:57:12;;;;;;;10.55;5.95;;;3.40;99.90;;;;;;5011826;28;20100;-77
2021/01/09 00:59:38;;;;;;;12.57;6.70;;;3.40;99.90;;;;;;5008317;28;20598;-77
2021/01/09 01:02:03;;;;;;;10.68;6.00;;;3.40;99.90;;;;;;5006570;28;20022;-77
2021/01/09 01:04:29;;;;;;;14.23;7.40;;;3.40;99.90;;;;;;5000141;28;20037;-77
2021/01/09 01:06:54;;;;;;;10.65;6.32;;;3.40;99.90;;;;;;5009496;28;20535;-76
2021/01/09 01:09:20;;;;;;;10.55;6.57;;;3.40;99.90;;;;;;5003994;28;20056;-77
2021/01/09 01:11:45;;;;;;;10.35;5.68;;;3.40;99.90;;;;;;5015687;28;20053;-76
2021/01/09 01:14:11;;;;;;;11.15;6.53;;;3.40;99.90;;;;;;5008089;28;20472;-76
2021/01/09 01:16:36;;;;;;;11.18;6.20;;;3.50;99.90;;;;;;5006683;28;20044;-77
2021/01/09 01:19:03;;;;;;;11.43;6.00;;;3.40;99.90;;;;;;5005819;28;20235;-77
2021/01/09 01:21:28;;;;;;;12.75;6.63;;;3.40;99.90;;;;;;5015063;28;20033;-76
2021/01/09 01:23:54;;;;;;;11.45;6.63;;;3.40;99.90;;;;;;5001367;28;20361;-77
2021/01/09 01:26:20;;;;;;;10.18;5.97;;;3.40;99.90;;;;;;5003411;28;20029;-77
2021/01/09 01:28:45;;;;;;;12.75;6.90;;;3.40;99.90;;;;;;5004456;28;20050;-77
2021/01/09 01:31:11;;;;;;;10.35;6.25;;;3.40;99.90;;;;;;5005463;28;20443;-76
2021/01/09 01:33:40;;;;;;;11.75;6.60;;;3.30;99.90;;;;;;5002406;28;20030;-76
2021/01/09 01:36:11;;;;;;;11.73;5.97;;;3.40;99.90;;;;;;5001422;28;20065;-76
2021/01/09 01:38:37;;;;;;;13.63;6.57;;;3.40;99.90;;;;;;5005755;28;20030;-77
2021/01/09 01:41:07;;;;;;;10.68;6.20;;;3.30;99.90;;;;;;5011926;28;20045;-76
2021/01/09 01:43:33;;;;;;;10.75;6.53;;;3.30;99.90;;;;;;5009912;28;20031;-76
2021/01/09 01:46:01;;;;;;;11.15;6.30;;;3.30;99.90;;;;;;5007092;28;20442;-76
2021/01/09 01:48:26;;;;;;;12.57;6.40;;;3.20;99.90;;;;;;5009519;28;20100;-77
2021/01/09 01:50:52;;;;;;;12.20;6.03;;;3.30;99.90;;;;;;5008461;28;20662;-77
2021/01/09 01:53:18;;;;;;;10.85;6.53;;;3.40;99.90;;;;;;4995972;28;20026;-77
2021/01/09 01:55:44;;;;;;;11.98;6.72;;;3.40;99.90;;;;;;5000815;28;20396;-77
2021/01/09 01:58:10;;;;;;;11.98;6.68;;;3.40;99.90;;;;;;5010851;28;20032;-77
2021/01/09 02:00:36;;;;;;;14.88;7.15;;;3.30;99.90;;;;;;5012506;28;20376;-77
2021/01/09 02:03:01;;;;;;;11.95;6.45;;;3.30;99.90;;;;;;5002352;28;20026;-78
2021/01/09 02:05:33;;;;;;;11.63;6.60;;;3.30;99.90;;;;;;5009500;28;20537;-77
2021/01/09 02:08:02;;;;;;;12.82;6.85;;;3.20;99.90;;;;;;5003737;28;20116;-78
2021/01/09 02:10:28;;;;;;;11.25;6.50;;;3.30;99.90;;;;;;5007668;28;20030;-78
2021/01/09 02:13:05;;;;;;;10.38;5.80;;;3.30;99.90;;;;;;5003854;28;20034;-77
2021/01/09 02:15:32;;;;;;;11.80;6.13;;;3.20;99.90;;;;;;5003289;28;20559;-77
2021/01/09 02:17:59;;;;;;;11.23;6.78;;;3.20;99.90;;;;;;5014534;28;20476;-77
2021/01/09 02:20:28;;;;;;;13.77;7.40;;;3.20;99.90;;;;;;5008515;28;20026;-78
2021/01/09 02:22:55;;;;;;;10.18;5.68;;;3.30;99.90;;;;;;5010614;28;20029;-78
2021/01/09 02:25:21;;;;;;;10.65;6.40;;;3.40;99.90;;;;;;5014349;28;20018;-77
2021/01/09 02:27:46;;;;;;;12.85;6.30;;;3.40;99.90;;;;;;4998907;28;20471;-78
2021/01/09 02:30:14;;;;;;;11.55;6.47;;;3.40;99.90;;;;;;5006720;28;20022;-77
2021/01/09 02:32:51;;;;;;;12.98;6.57;;;3.40;99.90;;;;;;5002703;28;20036;-77
2021/01/09 02:35:20;;;;;;;10.75;6.45;;;3.40;99.90;;;;;;5007858;28;20030;-78
2021/01/09 02:37:45;;;;;;;11.88;6.60;;;3.40;99.90;;;;;;5002626;28;20034;-77
2021/01/09 02:40:17;;;;;;;10.38;6.13;;;3.40;99.90;;;;;;5007137;28;20392;-78
2021/01/09 02:42:43;;;;;;;12.00;6.72;;;3.30;99.90;;;;;;4995821;28;20146;-78
2021/01/09 02:45:09;;;;;;;9.50;6.03;;;3.30;99.90;;;;;;5001737;28;20109;-78
2021/01/09 02:47:36;;;;;;;11.63;5.97;;;3.30;99.90;;;;;;4994676;28;20030;-78
2021/01/09 02:50:03;;;;;;;10.57;5.80;;;3.40;99.90;;;;;;5009072;28;20380;-78
2021/01/09 02:52:28;;;;;;;11.65;5.93;;;3.30;99.90;;;;;;5010098;28;20412;-78
2021/01/09 02:54:54;;;;;;;10.70;6.07;;;3.30;99.90;;;;;;5002239;28;20018;-77
2021/01/09 02:57:19;;;;;;;10.00;6.07;;;3.40;99.90;;;;;;5007763;28;20391;-78
2021/01/09 02:59:44;;;;;;;9.60;5.57;;;3.40;99.90;;;;;;5007241;28;20021;-78
2021/01/09 03:02:10;;;;;;;10.98;5.95;;;3.50;99.90;;;;;;4996240;28;20022;-78
2021/01/09 03:04:35;;;;;;;10.40;5.70;;;3.50;99.90;;;;;;5002093;28;20022;-78
2021/01/09 03:07:01;;;;;;;9.10;5.78;;;3.40;99.90;;;;;;5019627;28;20136;-78
2021/01/09 03:09:26;;;;;;;9.57;6.10;;;3.40;99.90;;;;;;5007809;28;20034;-78
2021/01/09 03:11:53;;;;;;;10.90;5.78;;;3.40;99.90;;;;;;5006184;28;20041;-77
2021/01/09 03:14:18;;;;;;;12.18;6.57;;;3.40;99.90;;;;;;4997644;28;20061;-77
2021/01/09 03:16:44;;;;;;;10.70;6.28;;;3.40;99.90;;;;;;5006541;28;20148;-78
2021/01/09 03:19:09;;;;;;;10.25;6.13;;;3.50;99.90;;;;;;4994888;28;20029;-78
2021/01/09 03:21:34;;;;;;;10.45;5.90;;;3.40;99.90;;;;;;5002146;28;20022;-78
2021/01/09 03:24:00;;;;;;;12.00;5.93;;;3.40;99.90;;;;;;5007508;28;20044;-77
2021/01/09 03:26:25;;;;;;;11.73;6.45;;;3.40;99.90;;;;;;5006310;28;20026;-78
2021/01/09 03:28:51;;;;;;;10.43;5.95;;;3.40;99.90;;;;;;4989553;28;20432;-78
2021/01/09 03:31:17;;;;;;;9.13;5.53;;;3.30;99.90;;;;;;5007287;28;20129;-77
2021/01/09 03:33:42;;;;;;;10.13;6.30;;;3.30;99.90;;;;;;5009574;28;20034;-78
2021/01/09 03:36:08;;;;;;;9.65;6.10;;;3.40;99.90;;;;;;5016474;28;20037;-77
2021/01/09 03:38:34;;;;;;;11.10;6.20;;;3.40;99.90;;;;;;5006126;28;20036;-77
2021/01/09 03:40:59;;;;;;;8.55;5.30;;;3.40;99.90;;;;;;4995410;28;20030;-78
2021/01/09 03:43:25;;;;;;;10.63;5.93;;;3.40;99.90;;;;;;5009939;28;20030;-78
2021/01/09 03:45:50;;;;;;;9.30;5.85;;;3.30;99.90;;;;;;4995517;28;20022;-78
2021/01/09 03:48:16;;;;;;;12.65;6.82;;;3.40;99.90;;;;;;5004084;28;20483;-77
2021/01/09 03:50:41;;;;;;;10.40;5.90;;;3.40;99.90;;;;;;4996576;28;20434;-78
2021/01/09 03:53:06;;;;;;;10.00;5.93;;;3.40;99.90;;;;;;5007601;28;20047;-78
2021/01/09 03:55:32;;;;;;;10.07;5.90;;;3.30;99.90;;;;;;5002444;28;20023;-78
2021/01/09 03:57:57;;;;;;;10.85;6.05;;;3.40;99.90;;;;;;4993089;28;20578;-78
2021/01/09 04:00:23;;;;;;;9.98;5.88;;;3.40;99.90;;;;;;5007546;28;20036;-78
2021/01/09 04:02:49;;;;;;;12.15;6.68;;;3.40;99.90;;;;;;5004876;28;20034;-78
2021/01/09 04:05:14;;;;;;;9.85;5.90;;;3.40;99.90;;;;;;5008498;28;20025;-77
2021/01/09 04:07:39;;;;;;;12.25;6.85;;;3.40;99.90;;;;;;5008451;28;20034;-77
2021/01/09 04:10:06;;;;;;;11.77;6.40;;;3.30;99.90;;;;;;5000736;28;20496;-78
2021/01/09 04:12:31;;;;;;;13.75;6.18;;;3.30;99.90;;;;;;4999696;28;20060;-78
2021/01/09 04:14:57;;;;;;;12.02;6.22;;;3.40;99.90;;;;;;5001371;28;20026;-77
2021/01/09 04:17:22;;;;;;;12.32;6.57;;;3.40;99.90;;;;;;5015847;28;20120;-78
2021/01/09 04:19:48;;;;;;;9.98;5.80;;;3.50;99.90;;;;;;5013764;28;20034;-78
2021/01/09 04:22:13;;;;;;;11.05;6.68;;;3.50;99.90;;;;;;4997518;28;20018;-77
2021/01/09 04:24:39;;;;;;;11.38;6.75;;;3.40;99.90;;;;;;5009253;28;20428;-78
2021/01/09 04:27:04;;;;;;;11.70;6.43;;;3.40;99.90;;;;;;5002357;28;20084;-77
2021/01/09 04:29:31;;;;;;;11.32;6.05;;;3.40;99.90;;;;;;5005922;28;20022;-78
2021/01/09 04:31:58;;;;;;;11.18;6.50;;;3.30;99.90;;;;;;5007728;28;20066;-78
2021/01/09 04:34:24;;;;;;;11.43;5.97;;;3.30;99.90;;;;;;5009606;28;20040;-78
2021/01/09 04:36:51;;;;;;;11.85;6.90;;;3.40;99.90;;;;;;5009453;28;20041;-76
2021/01/09 04:39:16;;;;;;;10.40;6.07;;;3.30;99.90;;;;;;5010122;28;20120;-77
2021/01/09 04:41:42;;;;;;;11.63;6.50;;;3.40;99.90;;;;;;5021379;28;20497;-77
2021/01/09 04:44:09;;;;;;;10.25;6.15;;;3.40;99.90;;;;;;5004930;28;20022;-77
2021/01/09 04:46:47;;;;;;;10.20;5.80;;;3.50;99.90;;;;;;5011260;28;20069;-77
2021/01/09 04:49:13;;;;;;;10.68;5.78;;;3.40;99.90;;;;;;5000383;28;20385;-77
2021/01/09 04:51:40;;;;;;;9.20;5.88;;;3.40;99.90;;;;;;5005057;28;20042;-77
2021/01/09 04:54:06;;;;;;;10.73;5.80;;;3.40;99.90;;;;;;4998445;28;20076;-77
2021/01/09 04:56:31;;;;;;;10.52;5.93;;;3.30;99.90;;;;;;5008886;28;20038;-77
2021/01/09 04:58:57;;;;;;;9.93;6.05;;;3.30;99.90;;;;;;5008321;28;20021;-77
2021/01/09 05:01:23;;;;;;;10.30;5.47;;;3.30;99.90;;;;;;5007338;28;20116;-77
2021/01/09 05:03:48;;;;;;;10.82;5.70;;;3.40;99.90;;;;;;4995567;28;20037;-77
2021/01/09 05:06:20;;;;;;;10.00;5.93;;;3.40;99.90;;;;;;5012169;28;20030;-77
2021/01/09 05:08:47;;;;;;;10.43;5.53;;;3.40;99.90;;;;;;5008890;28;20423;-77
2021/01/09 05:11:15;;;;;;;9.15;5.28;;;3.40;99.90;;;;;;5007201;28;20030;-76
2021/01/09 05:13:41;;;;;;;10.30;5.88;;;3.30;99.90;;;;;;5017312;28;20135;-77
2021/01/09 05:16:07;;;;;;;9.73;5.65;;;3.40;99.90;;;;;;4996435;28;20645;-77
2021/01/09 05:18:33;;;;;;;9.05;5.18;;;3.40;99.90;;;;;;5001642;28;20029;-77
2021/01/09 05:20:59;;;;;;;7.07;4.30;;;3.30;99.90;;;;;;5007310;28;20036;-77
2021/01/09 05:23:27;;;;;;;9.60;5.20;;;3.40;99.90;;;;;;4996549;28;20030;-77
2021/01/09 05:25:53;;;;;;;8.30;4.82;;;3.30;99.90;;;;;;5003254;28;20035;-76
2021/01/09 05:28:19;;;;;;;8.18;4.93;;;3.30;99.90;;;;;;5012925;28;20121;-77
2021/01/09 05:30:44;;;;;;;9.30;5.07;;;3.30;99.90;;;;;;5000229;28;20122;-77
2021/01/09 05:33:10;;;;;;;8.75;4.68;;;3.30;99.90;;;;;;5000161;28;20088;-77
2021/01/09 05:35:37;;;;;;;8.30;5.07;;;3.30;99.90;;;;;;4993733;28;20030;-77
2021/01/09 05:38:03;;;;;;;9.85;5.68;;;3.40;99.90;;;;;;5017101;28;20028;-77
2021/01/09 05:40:28;;;;;;;11.77;5.70;;;3.40;99.90;;;;;;5009277;28;20033;-77
2021/01/09 05:43:06;;;;;;;9.23;4.88;;;3.40;99.90;;;;;;5008005;28;20053;-77
2021/01/09 05:45:33;;;;;;;12.07;5.68;;;3.40;99.90;;;;;;5004396;28;20031;-77
2021/01/09 05:48:00;;;;;;;11.30;5.45;;;3.40;99.90;;;;;;5013445;28;20254;-77
2021/01/09 05:50:26;;;;;;;9.05;5.05;;;3.40;99.90;;;;;;5010867;28;20037;-77
2021/01/09 05:52:51;;;;;;;11.38;5.82;;;3.30;99.90;;;;;;5004204;28;20030;-78
2021/01/09 05:55:17;;;;;;;9.15;5.43;;;3.30;99.90;;;;;;4998174;28;20030;-77
2021/01/09 05:57:44;;;;;;;10.27;5.68;;;3.30;99.90;;;;;;5013098;28;20034;-77
2021/01/09 06:00:11;;;;;;;10.13;5.55;;;3.30;99.90;;;;;;5000161;28;20022;-77
2021/01/09 06:03:01;;;;;;;9.88;5.95;;;3.50;99.90;;;;;;5004232;28;20030;-77
2021/01/09 06:05:38;;;;;;;10.40;5.80;;;3.40;99.90;;;;;;5000665;28;20051;-77
2021/01/09 06:08:07;;;;;;;9.27;5.65;;;3.40;99.90;;;;;;4999571;28;20122;-77
2021/01/09 06:10:37;;;;;;;9.32;5.40;;;3.30;99.90;;;;;;5004536;28;20044;-77
2021/01/09 06:13:02;;;;;;;9.88;5.47;;;3.30;99.90;;;;;;5012275;28;20444;-77
2021/01/09 06:15:30;;;;;;;8.30;5.05;;;3.30;99.90;;;;;;5009864;28;20042;-77
2021/01/09 06:17:57;;;;;;;9.65;5.68;;;3.40;99.90;;;;;;5008383;28;20026;-77
2021/01/09 06:20:23;;;;;;;10.10;4.97;;;3.40;99.90;;;;;;4995115;28;20054;-77
2021/01/09 06:22:49;;;;;;;8.15;5.03;;;3.40;99.90;;;;;;5002558;28;20057;-78
2021/01/09 06:25:16;;;;;;;10.07;5.30;;;3.40;99.90;;;;;;5012878;28;20115;-77
2021/01/09 06:27:48;;;;;;;8.60;5.30;;;3.40;99.90;;;;;;5007149;28;20026;-77
2021/01/09 06:30:18;;;;;;;10.52;5.45;;;3.40;99.90;;;;;;5024827;28;20492;-77
2021/01/09 06:32:54;;;;;;;10.15;5.25;;;3.30;99.90;;;;;;4995907;28;20034;-76
2021/01/09 06:35:20;;;;;;;10.65;5.22;;;3.30;99.90;;;;;;4999611;28;20027;-77
2021/01/09 06:37:46;;;;;;;13.70;6.18;;;3.30;99.90;;;;;;4994481;28;20499;-77
2021/01/09 06:40:13;;;;;;;9.52;5.32;;;3.30;99.90;;;;;;5004723;28;20109;-77
2021/01/09 06:42:39;;;;;;;8.50;5.07;;;3.30;99.90;;;;;;5002285;28;20045;-77
2021/01/09 06:45:06;;;;;;;8.75;5.20;;;3.40;99.90;;;;;;5003132;28;20494;-78
2021/01/09 06:47:31;;;;;;;9.02;5.22;;;3.40;99.90;;;;;;5005899;28;20115;-77
2021/01/09 06:50:25;;;;;;;7.57;4.80;;;3.40;99.90;;;;;;5000728;28;20075;-77
2021/01/09 06:52:54;;;;;;;10.25;5.93;;;3.50;99.90;;;;;;4989826;28;20031;-77
2021/01/09 06:55:37;;;;;;;8.32;4.95;;;3.60;99.90;;;;;;4992202;28;20057;-77
2021/01/09 06:58:07;;;;;;;8.75;5.18;;;3.50;99.90;;;;;;5006964;28;20045;-77
2021/01/09 07:00:34;;;;;;;9.85;5.32;;;3.50;99.90;;;;;;5007853;28;20029;-77
2021/01/09 07:03:16;;;;;;;8.35;5.50;;;3.50;99.90;;;;;;5007719;28;20033;-77
2021/01/09 07:05:47;;;;;;;9.00;4.72;;;3.60;99.90;;;;;;5006896;28;20101;-77
2021/01/09 07:08:29;;;;;;;8.52;4.70;;;3.60;99.90;;;;;;5004103;28;20037;-77
2021/01/09 07:10:59;;;;;;;7.55;4.32;;;3.70;99.90;;;;;;5007077;28;20037;-77
2021/01/09 07:13:26;;;;;;;9.57;5.07;;;3.70;99.90;;;;;;5011437;28;20065;-77
2021/01/09 07:16:09;;;;;;;8.68;4.85;;;3.70;99.90;;;;;;5007965;28;20787;-77
2021/01/09 07:18:40;;;;;;;11.35;5.88;;;3.50;99.90;;;;;;4999355;28;20037;-77
2021/01/09 07:21:07;;;;;;;10.07;6.03;;;3.60;99.90;;;;;;5007757;28;20080;-77
2021/01/09 07:23:34;;;;;;;11.85;6.20;;;3.60;99.90;;;;;;5023495;28;20033;-77
2021/01/09 07:26:02;;;;;;;11.68;5.32;;;3.60;99.90;;;;;;5007781;28;20026;-78
2021/01/09 07:28:33;;;;;;;9.88;5.70;;;3.60;99.90;;;;;;5004797;28;20068;-77
2021/01/09 07:31:05;;;;;;;10.73;6.00;;;3.50;99.90;;;;;;5009887;28;20034;-77
2021/01/09 07:33:32;;;;;;;9.90;5.35;;;3.60;99.90;;;;;;5000302;28;20403;-79
2021/01/09 07:35:58;;;;;;;10.45;6.00;;;3.50;99.90;;;;;;5005225;28;20021;-77
2021/01/09 07:38:24;;;;;;;10.50;5.85;;;3.60;99.90;;;;;;5007708;28;20022;-77
2021/01/09 07:40:55;;;;;;;11.55;6.57;;;3.60;99.90;;;;;;5005540;28;20049;-77
2021/01/09 07:43:41;;;;;;;11.52;5.97;;;3.60;99.90;;;;;;4994084;28;20022;-77
2021/01/09 07:46:23;;;;;;;10.93;5.70;;;3.70;99.90;;;;;;5006095;28;20026;-77
2021/01/09 07:48:49;;;;;;;10.75;5.80;;;3.60;99.90;;;;;;5001644;28;20034;-77
2021/01/09 07:51:16;;;;;;;12.43;5.97;;;3.70;99.90;;;;;;5007997;28;20033;-77
2021/01/09 07:53:46;;;;;;;11.05;6.60;;;3.60;99.90;;;;;;5004782;28;20053;-77
2021/01/09 07:56:38;;;;;;;10.38;5.80;;;3.60;99.90;;;;;;5001929;28;20026;-77
2021/01/09 07:59:07;;;;;;;12.40;7.00;;;3.60;99.90;;;;;;4993218;28;20072;-77
2021/01/09 08:01:43;;;;;;;12.70;7.10;;;3.60;99.90;;;;;;5010338;28;20058;-77
2021/01/09 08:04:11;;;;;;;11.43;6.53;;;3.60;99.90;;;;;;4995785;28;20026;-77
2021/01/09 08:06:40;;;;;;;9.38;5.65;;;3.60;99.90;;;;;;5014161;28;20405;-77
2021/01/09 08:09:06;;;;;;;10.13;5.43;;;3.60;99.90;;;;;;4999800;28;20081;-77
2021/01/09 08:11:39;;;;;;;9.43;5.63;;;3.50;99.90;;;;;;5001815;28;20105;-77
2021/01/09 08:14:04;;;;;;;10.25;5.53;;;3.60;99.90;;;;;;5007336;28;20049;-77
2021/01/09 08:16:30;;;;;;;12.43;5.57;;;3.60;99.90;;;;;;4993105;28;20061;-77
2021/01/09 08:19:28;;;;;;;8.85;5.00;;;3.60;99.90;;;;;;5012503;28;20022;-77
2021/01/09 08:21:53;;;;;;;9.40;5.20;;;3.70;99.90;;;;;;5002394;28;20041;-77
2021/01/09 08:24:25;;;;;;;7.72;4.88;;;3.70;99.90;;;;;;5001910;28;20022;-78
2021/01/09 08:26:52;;;;;;;9.73;5.20;;;3.70;99.90;;;;;;5011014;28;20112;-77
2021/01/09 08:29:19;;;;;;;10.45;5.60;;;3.70;99.90;;;;;;5011836;28;20022;-77
2021/01/09 08:31:45;;;;;;;10.25;5.68;;;3.70;99.90;;;;;;5014918;28;20080;-77
2021/01/09 08:34:10;;;;;;;9.70;5.63;;;3.70;99.90;;;;;;5002258;28;20030;-77
2021/01/09 08:36:39;;;;;;;10.02;5.70;;;3.60;99.90;;;;;;5003734;28;20036;-78
2021/01/09 08:39:07;;;;;;;9.85;5.60;;;3.60;99.90;;;;;;5002897;28;20113;-81
2021/01/09 08:41:40;;;;;;;8.68;5.43;;;3.70;99.90;;;;;;5012027;28;20092;-81
2021/01/09 08:44:10;;;;;;;11.77;5.72;;;3.70;99.90;;;;;;5002516;28;20041;-81
2021/01/09 08:46:37;;;;;;;10.60;5.32;;;3.70;99.90;;;;;;5000862;28;20056;-80
2021/01/09 08:49:06;;;;;;;8.95;5.45;;;3.70;99.90;;;;;;5009364;28;20049;-80
2021/01/09 08:51:33;;;;;;;12.98;6.47;;;3.70;99.90;;;;;;5010063;28;20030;-86
2021/01/09 08:54:03;;;;;;;9.48;6.03;;;3.80;99.90;;;;;;5008493;28;20485;-81
2021/01/09 08:56:30;;;;;;;11.80;6.40;;;3.70;99.90;;;;;;5003213;28;20343;-81
2021/01/09 08:59:08;;;;;;;11.18;6.20;;;3.80;99.90;;;;;;5011042;28;20088;-84
2021/01/09 09:01:49;;;;;;;11.73;6.78;;;3.70;99.90;;;;;;5018764;28;20583;-78
2021/01/09 09:04:20;;;;;;;11.88;5.97;;;3.70;99.90;;;;;;5009078;28;20029;-77
2021/01/09 09:06:48;;;;;;;12.65;7.18;;;3.70;99.90;;;;;;5004805;28;20041;-78
2021/01/09 09:09:17;;;;;;;13.10;6.43;;;3.70;99.90;;;;;;4997093;28;20026;-78
2021/01/09 09:11:52;;;;;;;13.65;6.68;;;3.60;99.90;;;;;;5002288;28;20030;-79
2021/01/09 09:14:18;;;;;;;12.93;7.38;;;3.70;99.90;;;;;;5007715;28;20803;-77
2021/01/09 09:16:44;;;;;;;13.13;6.85;;;3.80;99.90;;;;;;5011395;28;20026;-78
2021/01/09 09:19:17;;;;;;;13.20;6.50;;;3.70;99.90;;;;;;5008993;28;20034;-79
2021/01/09 09:21:44;;;;;;;15.93;7.25;;;3.80;99.90;;;;;;5007024;28;20028;-77
2021/01/09 09:24:11;;;;;;;16.60;7.65;;;3.80;99.90;;;;;;5009942;28;20026;-80
2021/01/09 09:26:37;;;;;;;13.70;7.15;;;3.80;99.90;;;;;;5012366;28;20664;-79
2021/01/09 09:29:03;;;;;;;14.18;6.30;;;3.80;99.90;;;;;;5009760;28;20121;-80
2021/01/09 09:31:32;;;;;;;11.80;5.95;;;3.70;99.90;;;;;;5007482;28;20411;-79
2021/01/09 09:34:09;;;;;;;13.63;7.13;;;3.70;99.90;;;;;;5008398;28;20503;-82
2021/01/09 09:36:49;;;;;;;15.65;7.25;;;3.70;99.90;;;;;;4998512;28;20117;-75
2021/01/09 09:39:17;;;;;;;13.98;6.88;;;3.90;99.90;;;;;;4998937;28;20626;-75
2021/01/09 09:41:53;;;;;;;14.10;6.72;;;3.80;99.90;;;;;;5002121;28;20034;-74
2021/01/09 09:44:20;;;;;;;12.82;7.03;;;3.80;99.90;;;;;;5005033;28;20112;-75
2021/01/09 09:46:48;;;;;;;13.20;6.90;;;3.80;99.90;;;;;;5016309;28;20061;-76
2021/01/09 09:49:13;;;;;;;14.90;7.30;;;3.90;99.90;;;;;;5006976;28;20034;-74
2021/01/09 09:51:39;;;;;;;13.45;6.50;;;3.90;99.90;;;;;;5000079;28;20048;-75
2021/01/09 09:54:05;;;;;;;16.55;6.85;;;3.70;99.90;;;;;;5006735;28;20026;-75
2021/01/09 09:56:39;;;;;;;15.88;7.30;;;3.70;99.90;;;;;;5011280;28;20038;-75
2021/01/09 09:59:06;;;;;;;14.23;6.47;;;3.80;99.90;;;;;;5010601;28;20073;-75
2021/01/09 10:01:33;;;;;;;14.60;7.03;;;3.90;99.90;;;;;;5003871;28;20033;-75
2021/01/09 10:04:00;;;;;;;17.33;7.30;;;3.80;99.90;;;;;;5005555;28;20026;-74
2021/01/09 10:06:41;;;;;;;20.42;7.32;;;3.80;99.90;;;;;;5005333;28;20030;-76
2021/01/09 10:09:21;;;;;;;15.55;7.05;;;3.70;99.90;;;;;;5000201;28;20037;-74
2021/01/09 10:11:48;;;;;;;16.15;6.97;;;3.90;99.90;;;;;;5016244;28;20064;-76
2021/01/09 10:14:14;;;;;;;16.25;7.70;;;3.80;99.90;;;;;;5006250;28;20451;-76
2021/01/09 10:16:40;;;;;;;17.50;7.65;;;3.90;99.90;;;;;;4997802;28;20044;-74
2021/01/09 10:19:06;;;;;;;16.20;7.47;;;3.80;99.90;;;;;;5009180;28;20092;-77
2021/01/09 10:21:32;;;;;;;20.70;8.15;;;3.80;99.90;;;;;;5011261;28;20025;-75
2021/01/09 10:23:59;;;;;;;16.42;7.63;;;3.80;99.90;;;;;;5008595;28;20026;-74
2021/01/09 10:26:38;;;;;;;16.75;7.80;;;3.90;99.90;;;;;;5001137;28;20030;-75
2021/01/09 10:29:04;;;;;;;18.10;8.23;;;3.80;99.90;;;;;;4992533;28;20496;-75
2021/01/09 10:31:31;;;;;;;20.67;8.70;;;3.90;99.90;;;;;;5013396;28;20029;-76
2021/01/09 10:33:56;;;;;;;16.98;7.38;;;3.80;99.90;;;;;;4995928;28;20026;-74
2021/01/09 10:36:26;;;;;;;16.92;8.07;;;3.80;99.90;;;;;;5000518;28;20674;-74
2021/01/09 10:38:52;;;;;;;20.05;8.60;;;3.90;99.90;;;;;;5006335;28;20600;-75
2021/01/09 10:41:18;;;;;;;22.50;8.68;;;3.90;99.90;;;;;;4996220;28;20046;-74
2021/01/09 10:43:44;;;;;;;16.08;7.82;;;3.90;99.90;;;;;;5006800;28;20026;-74
2021/01/09 10:46:09;;;;;;;21.10;8.82;;;3.90;99.90;;;;;;5006363;28;20145;-75
2021/01/09 10:48:35;;;;;;;18.35;8.43;;;3.90;99.90;;;;;;5000178;28;20018;-74
2021/01/09 10:51:00;;;;;;;21.13;8.75;;;3.90;99.90;;;;;;5000136;28;20056;-74
2021/01/09 10:53:26;;;;;;;18.95;8.80;;;4.00;99.90;;;;;;5002999;28;20056;-73
2021/01/09 10:55:55;;;;;;;20.98;8.93;;;4.00;99.90;;;;;;5002605;28;20085;-75
2021/01/09 10:58:21;;;;;;;20.55;8.95;;;4.00;99.90;;;;;;5003689;28;20407;-73
2021/01/09 11:00:46;;;;;;;19.42;8.40;;;3.90;99.90;;;;;;5000436;28;20033;-75
2021/01/09 11:03:12;;;;;;;22.00;9.48;;;3.90;99.90;;;;;;5000961;28;20488;-76
2021/01/09 11:05:40;;;;;;;21.13;8.93;;;3.90;99.90;;;;;;5005011;28;20036;-73
2021/01/09 11:08:06;;;;;;;22.27;9.60;;;4.00;99.90;;;;;;5004585;28;20029;-73
2021/01/09 11:10:31;;;;;;;23.05;9.35;;;4.00;99.90;;;;;;5005325;28;20045;-76
2021/01/09 11:12:57;;;;;;;20.63;9.40;;;4.10;99.90;;;;;;5002401;28;20014;-76
2021/01/09 11:15:23;;;;;;;22.48;9.18;;;4.10;99.90;;;;;;4999116;28;20065;-73
2021/01/09 11:17:48;;;;;;;18.92;9.18;;;4.10;99.90;;;;;;5004825;28;20045;-74
2021/01/09 11:20:15;;;;;;;17.58;9.10;;;4.10;99.90;;;;;;5006428;28;20476;-73
2021/01/09 11:22:40;;;;;;;20.27;9.90;;;4.10;99.90;;;;;;4994411;28;20029;-73
2021/01/09 11:28:32;;;;;;;18.15;8.70;;;4.10;99.90;;;;;;4966834;28;20493;-75
2021/01/09 11:30:58;;;;;;;17.77;9.07;;;4.10;99.90;;;;;;4984644;28;20066;-75
2021/01/09 11:33:24;;;;;;;17.15;7.85;;;4.20;99.90;;;;;;5000357;28;20022;-75
2021/01/09 11:35:49;;;;;;;15.98;7.88;;;4.30;99.90;;;;;;4989372;28;20030;-75
2021/01/09 11:38:14;;;;;;;15.70;7.70;;;4.40;99.90;;;;;;4989291;28;20106;-74
2021/01/09 11:40:40;;;;;;;16.58;8.15;;;4.40;99.90;;;;;;4988509;28;20046;-74
2021/01/09 11:43:05;;;;;;;16.83;8.18;;;4.40;99.90;;;;;;4990858;28;20019;-74
2021/01/09 11:45:31;;;;;;;17.20;8.73;;;4.40;99.90;;;;;;5007866;28;20060;-74
2021/01/09 11:47:57;;;;;;;15.82;7.43;;;4.50;99.90;;;;;;5008650;28;20057;-74
2021/01/09 11:50:22;;;;;;;17.13;8.55;;;4.50;99.90;;;;;;5008113;28;20029;-75
2021/01/09 11:52:47;;;;;;;16.48;8.20;;;4.50;99.90;;;;;;5008191;28;20519;-74
2021/01/09 11:55:13;;;;;;;15.60;7.40;;;4.40;99.90;;;;;;5009321;28;20384;-74
2021/01/09 11:57:38;;;;;;;14.38;6.80;;;4.50;99.90;;;;;;4999173;28;20091;-74
2021/01/09 12:00:09;;;;;;;18.20;7.65;;;4.50;99.90;;;;;;4992610;28;20105;-74
2021/01/09 12:02:36;;;;;;;14.15;7.13;;;4.50;99.90;;;;;;4992512;28;20034;-74
2021/01/09 12:05:02;;;;;;;17.05;7.20;;;4.50;99.90;;;;;;5004328;28;20068;-74
2021/01/09 12:07:27;;;;;;;13.30;7.10;;;4.50;99.90;;;;;;5008320;28;20735;-74
2021/01/09 12:09:53;;;;;;;16.95;7.15;;;4.60;99.90;;;;;;5011965;28;20488;-74
2021/01/09 12:12:18;;;;;;;15.13;6.95;;;4.50;99.90;;;;;;4998166;28;20046;-74
2021/01/09 12:14:43;;;;;;;16.42;7.70;;;4.50;99.90;;;;;;4993177;28;20053;-74
2021/01/09 12:17:09;;;;;;;15.98;7.35;;;4.50;99.90;;;;;;4992619;28;20045;-74
2021/01/09 12:19:34;;;;;;;18.75;7.38;;;4.50;99.90;;;;;;4994337;28;20022;-74
2021/01/09 12:22:00;;;;;;;15.52;7.25;;;4.50;99.90;;;;;;4992715;28;20472;-74
2021/01/09 12:24:26;;;;;;;15.75;7.63;;;4.50;99.90;;;;;;4991994;28;20177;-73
2021/01/09 12:26:55;;;;;;;15.77;7.60;;;4.50;99.90;;;;;;5004143;28;20038;-74
2021/01/09 12:29:21;;;;;;;14.60;8.00;;;4.40;99.90;;;;;;5000489;28;20025;-74
2021/01/09 12:31:47;;;;;;;19.33;7.95;;;4.50;99.90;;;;;;5011915;28;20026;-73
2021/01/09 12:34:13;;;;;;;16.00;7.75;;;4.50;99.90;;;;;;5011587;28;20476;-73
2021/01/09 12:36:39;;;;;;;17.77;8.82;;;4.60;99.90;;;;;;5011187;28;20038;-73
2021/01/09 12:39:05;;;;;;;19.58;8.30;;;4.50;99.90;;;;;;5011393;28;20022;-73
2021/01/09 12:41:38;;;;;;;18.60;7.85;;;4.50;99.90;;;;;;5002800;28;20046;-73
2021/01/09 12:44:05;;;;;;;15.68;8.02;;;4.50;99.90;;;;;;5011765;28;20595;-73
2021/01/09 12:46:42;;;;;;;22.13;8.65;;;4.60;99.90;;;;;;5011567;28;20044;-74
2021/01/09 12:49:12;;;;;;;16.30;8.35;;;4.60;99.90;;;;;;5002406;28;20038;-73
2021/01/09 12:51:38;;;;;;;16.45;7.70;;;4.60;99.90;;;;;;5004923;28;20129;-75
2021/01/09 12:54:04;;;;;;;16.52;8.23;;;4.60;99.90;;;;;;5011489;28;20486;-74